createdAt,value
2022-09-24T00:01:21.698Z,17.70
2022-09-24T00:03:52.242Z,16.40
2022-09-24T00:06:19.098Z,16.40
2022-09-24T00:08:45.781Z,15.10
2022-09-24T00:11:12.296Z,16.38
2022-09-24T00:13:39.672Z,15.98
2022-09-24T00:16:10.830Z,15.38
2022-09-24T00:18:37.790Z,14.73
2022-09-24T00:21:14.352Z,14.07
2022-09-24T00:23:40.817Z,15.27
2022-09-24T00:26:25.653Z,13.70
2022-09-24T00:28:52.511Z,14.98
2022-09-24T00:31:18.905Z,12.48
2022-09-24T00:33:45.191Z,14.02
2022-09-24T00:36:11.435Z,13.02
2022-09-24T00:38:37.701Z,12.50
2022-09-24T00:41:04.211Z,13.02
2022-09-24T00:43:34.049Z,12.07
2022-09-24T00:46:19.273Z,13.25
2022-09-24T00:48:47.365Z,11.85
2022-09-24T00:51:16.144Z,13.32
2022-09-24T00:53:43.792Z,11.88
2022-09-24T00:56:11.435Z,11.70
2022-09-24T00:58:38.286Z,11.63
2022-09-24T01:01:05.716Z,12.35
2022-09-24T01:03:33.094Z,11.60
2022-09-24T01:05:59.812Z,12.10
2022-09-24T01:08:26.086Z,12.77
2022-09-24T01:11:01.487Z,12.43
2022-09-24T01:13:52.504Z,11.05
2022-09-24T01:16:37.557Z,10.98
2022-09-24T01:19:22.804Z,12.43
2022-09-24T01:21:56.269Z,11.77
2022-09-24T01:24:37.596Z,10.25
2022-09-24T01:27:22.281Z,10.10
2022-09-24T01:29:49.505Z,10.88
2022-09-24T01:32:20.068Z,9.98
2022-09-24T01:34:49.226Z,9.68
2022-09-24T01:37:17.726Z,10.57
2022-09-24T01:39:45.502Z,10.18
2022-09-24T01:42:12.181Z,10.18
2022-09-24T01:44:39.707Z,10.48
2022-09-24T01:47:06.505Z,10.52
2022-09-24T01:49:32.787Z,10.10
2022-09-24T01:52:01.363Z,10.55
2022-09-24T01:54:42.254Z,8.90
2022-09-24T01:57:17.118Z,10.88
2022-09-24T01:59:49.868Z,10.00
2022-09-24T02:02:35.194Z,9.27
2022-09-24T02:05:08.088Z,8.77
2022-09-24T02:07:42.431Z,10.25
2022-09-24T02:10:20.230Z,9.93
2022-09-24T02:12:50.943Z,11.20
2022-09-24T02:15:27.805Z,10.07
2022-09-24T02:17:59.727Z,11.15
2022-09-24T02:20:27.091Z,9.18
2022-09-24T02:22:55.545Z,10.88
2022-09-24T02:25:25.763Z,9.23
2022-09-24T02:27:52.023Z,9.57
2022-09-24T02:30:18.428Z,10.15
2022-09-24T02:32:44.726Z,11.40
2022-09-24T02:35:11.859Z,9.88
2022-09-24T02:37:40.061Z,10.57
2022-09-24T02:40:08.202Z,10.60
2022-09-24T02:42:34.653Z,9.52
2022-09-24T02:45:02.216Z,9.50
2022-09-24T02:47:29.174Z,10.02
2022-09-24T02:49:56.068Z,10.48
2022-09-24T02:52:22.760Z,10.75
2022-09-24T02:54:50.551Z,10.45
2022-09-24T02:57:19.852Z,11.20
2022-09-24T02:59:46.392Z,10.43
2022-09-24T03:02:12.846Z,11.55
2022-09-24T03:04:39.212Z,11.52
2022-09-24T03:07:05.536Z,10.65
2022-09-24T03:09:31.788Z,11.77
2022-09-24T03:12:00.542Z,11.63
2022-09-24T03:14:27.372Z,11.00
2022-09-24T03:16:53.641Z,12.65
2022-09-24T03:19:19.904Z,11.15
2022-09-24T03:21:46.164Z,11.43
2022-09-24T03:24:12.422Z,12.98
2022-09-24T03:26:38.823Z,12.93
2022-09-24T03:29:05.108Z,10.25
2022-09-24T03:31:31.399Z,12.00
2022-09-24T03:33:57.814Z,10.82
2022-09-24T03:36:25.731Z,10.85
2022-09-24T03:38:55.637Z,10.82
2022-09-24T03:41:22.401Z,10.48
2022-09-24T03:43:48.663Z,10.38
2022-09-24T03:46:16.054Z,9.93
2022-09-24T03:48:42.733Z,11.50
2022-09-24T03:51:10.908Z,12.13
2022-09-24T03:53:37.653Z,11.15
2022-09-24T03:56:05.627Z,12.55
2022-09-24T03:58:32.470Z,10.68
2022-09-24T04:00:58.803Z,12.07
2022-09-24T04:03:25.514Z,11.75
2022-09-24T04:05:51.862Z,11.05
2022-09-24T04:08:21.882Z,12.15
2022-09-24T04:10:48.798Z,11.32
2022-09-24T04:13:15.614Z,12.07
2022-09-24T04:15:42.243Z,11.65
2022-09-24T04:18:08.840Z,11.35
2022-09-24T04:20:35.225Z,10.20
2022-09-24T04:23:01.501Z,10.63
2022-09-24T04:25:30.496Z,10.10
2022-09-24T04:28:00.731Z,9.65
2022-09-24T04:30:27.760Z,10.27
2022-09-24T04:32:54.153Z,10.52
2022-09-24T04:35:21.894Z,9.35
2022-09-24T04:37:48.742Z,9.07
2022-09-24T04:40:16.222Z,10.52
2022-09-24T04:42:44.828Z,10.25
2022-09-24T04:45:11.164Z,9.88
2022-09-24T04:47:40.475Z,9.50
2022-09-24T04:50:07.792Z,9.43
2022-09-24T04:52:34.400Z,10.48
2022-09-24T04:55:00.805Z,9.95
2022-09-24T04:57:27.867Z,9.93
2022-09-24T04:59:54.340Z,10.50
2022-09-24T05:02:20.708Z,9.85
2022-09-24T05:04:47.244Z,10.68
2022-09-24T05:07:13.698Z,10.57
2022-09-24T05:09:39.965Z,9.77
2022-09-24T05:12:06.256Z,10.27
2022-09-24T05:14:32.586Z,10.05
2022-09-24T05:16:58.843Z,10.88
2022-09-24T05:19:25.087Z,10.48
2022-09-24T05:21:51.350Z,10.85
2022-09-24T05:24:17.628Z,10.88
2022-09-24T05:27:02.248Z,11.20
2022-09-24T05:29:28.491Z,12.38
2022-09-24T05:31:54.735Z,11.63
2022-09-24T05:34:21.264Z,11.85
2022-09-24T05:36:47.557Z,11.80
2022-09-24T05:39:14.170Z,12.38
2022-09-24T05:41:40.739Z,13.07
2022-09-24T05:44:07.010Z,13.23
2022-09-24T05:46:33.360Z,12.57
2022-09-24T05:48:59.837Z,12.20
2022-09-24T05:51:26.126Z,13.13
2022-09-24T05:53:52.433Z,12.32
2022-09-24T05:56:18.707Z,11.88
2022-09-24T05:58:44.979Z,12.10
2022-09-24T06:01:11.228Z,11.82
2022-09-24T06:03:37.475Z,12.93
2022-09-24T06:06:03.724Z,11.80
2022-09-24T06:08:31.391Z,12.13
2022-09-24T06:11:02.360Z,11.23
2022-09-24T06:13:29.101Z,12.98
2022-09-24T06:16:02.144Z,11.30
2022-09-24T06:18:28.489Z,12.50
2022-09-24T06:20:55.375Z,12.93
2022-09-24T06:23:21.685Z,12.50
2022-09-24T06:25:53.815Z,14.52
2022-09-24T06:28:20.072Z,14.30
2022-09-24T06:30:46.332Z,12.55
2022-09-24T06:33:13.822Z,15.02
2022-09-24T06:35:41.161Z,12.15
2022-09-24T06:38:08.597Z,12.18
2022-09-24T06:40:37.317Z,12.63
2022-09-24T06:43:04.043Z,12.55
2022-09-24T06:45:30.295Z,13.52
2022-09-24T06:47:57.708Z,13.80
2022-09-24T06:50:24.878Z,12.77
2022-09-24T06:52:51.426Z,15.63
2022-09-24T06:55:18.394Z,13.68
2022-09-24T06:57:44.711Z,13.80
2022-09-24T07:00:12.267Z,15.20
2022-09-24T07:02:38.682Z,13.68
2022-09-24T07:05:05.411Z,13.75
2022-09-24T07:07:34.889Z,13.95
2022-09-24T07:10:02.196Z,14.65
2022-09-24T07:12:28.971Z,15.43
2022-09-24T07:14:55.451Z,15.02
2022-09-24T07:17:21.819Z,13.52
2022-09-24T07:19:48.081Z,13.95
2022-09-24T07:22:14.408Z,14.10
2022-09-24T07:24:40.686Z,14.68
2022-09-24T07:27:07.411Z,14.68
2022-09-24T07:29:33.724Z,13.43
2022-09-24T07:31:59.996Z,13.77
2022-09-24T07:34:26.298Z,13.68
2022-09-24T07:36:52.570Z,14.60
2022-09-24T07:39:20.138Z,15.02
2022-09-24T07:41:47.035Z,15.00
2022-09-24T07:44:13.487Z,13.55
2022-09-24T07:46:39.754Z,13.48
2022-09-24T07:49:06.054Z,15.00
2022-09-24T07:51:32.327Z,13.05
2022-09-24T07:53:58.603Z,15.20
2022-09-24T07:56:25.250Z,13.65
2022-09-24T07:58:52.245Z,15.20
2022-09-24T08:01:18.942Z,14.38
2022-09-24T08:03:46.321Z,15.10
2022-09-24T08:06:12.917Z,14.75
2022-09-24T08:08:39.537Z,13.57
2022-09-24T08:11:06.870Z,15.48
2022-09-24T08:13:34.461Z,14.52
2022-09-24T08:16:01.686Z,15.95
2022-09-24T08:18:28.736Z,14.50
2022-09-24T08:20:55.139Z,15.25
2022-09-24T08:23:21.433Z,15.40
2022-09-24T08:25:47.783Z,14.80
2022-09-24T08:28:16.911Z,15.45
2022-09-24T08:30:43.378Z,16.02
2022-09-24T08:33:10.047Z,16.05
2022-09-24T08:35:36.467Z,14.23
2022-09-24T08:38:03.506Z,14.75
2022-09-24T08:40:31.483Z,14.57
2022-09-24T08:43:14.228Z,16.27
2022-09-24T08:46:01.457Z,14.48
2022-09-24T08:48:31.383Z,15.88
2022-09-24T08:51:01.223Z,14.75
2022-09-24T08:53:46.275Z,14.98
2022-09-24T08:56:13.107Z,16.20
2022-09-24T08:58:49.208Z,17.08
2022-09-24T09:01:20.265Z,14.70
2022-09-24T09:04:01.676Z,14.88
2022-09-24T09:06:46.812Z,15.32
2022-09-24T09:09:31.899Z,15.02
2022-09-24T09:12:00.391Z,15.63
2022-09-24T09:14:39.654Z,14.88
2022-09-24T09:17:16.298Z,13.35
2022-09-24T09:19:43.643Z,16.40
2022-09-24T09:22:13.301Z,14.00
2022-09-24T09:24:49.817Z,13.18
2022-09-24T09:27:17.085Z,11.93
2022-09-24T09:29:46.111Z,14.10
2022-09-24T09:32:38.994Z,13.13
2022-09-24T09:35:05.223Z,13.50
2022-09-24T09:37:34.215Z,12.82
2022-09-24T09:40:17.718Z,12.02
2022-09-24T09:42:45.430Z,13.20
2022-09-24T09:45:32.855Z,13.60
2022-09-24T09:47:59.728Z,13.23
2022-09-24T09:50:44.977Z,13.70
2022-09-24T09:53:27.608Z,13.63
2022-09-24T09:55:58.395Z,14.43
2022-09-24T09:58:26.394Z,13.50
2022-09-24T10:00:52.943Z,14.63
2022-09-24T10:03:24.277Z,13.52
2022-09-24T10:06:09.172Z,14.52
2022-09-24T10:08:35.461Z,14.17
2022-09-24T10:11:03.363Z,16.05
2022-09-24T10:13:32.156Z,16.13
2022-09-24T10:15:59.551Z,15.98
2022-09-24T10:18:34.351Z,15.43
2022-09-24T10:21:09.901Z,16.25
2022-09-24T10:23:43.505Z,15.65
2022-09-24T10:26:10.311Z,15.85
2022-09-24T10:29:18.831Z,15.52
2022-09-24T10:31:45.924Z,17.08
2022-09-24T10:34:28.355Z,15.25
2022-09-24T10:37:01.923Z,16.23
2022-09-24T10:39:28.826Z,15.48
2022-09-24T10:41:58.283Z,16.15
2022-09-24T10:44:26.226Z,16.70
2022-09-24T10:47:04.843Z,15.95
2022-09-24T10:49:50.191Z,15.45
2022-09-24T10:52:48.788Z,15.32
2022-09-24T10:55:33.735Z,15.70
2022-09-24T10:58:05.828Z,13.48
2022-09-24T11:00:37.319Z,13.98
2022-09-24T11:03:24.371Z,13.68
2022-09-24T11:06:11.999Z,15.32
2022-09-24T11:08:57.016Z,15.15
2022-09-24T11:11:23.859Z,13.48
2022-09-24T11:13:59.205Z,16.02
2022-09-24T11:19:07.286Z,15.57
2022-09-24T11:21:41.189Z,16.27
2022-09-24T11:24:26.304Z,17.08
2022-09-24T11:27:11.427Z,16.75
2022-09-24T11:29:41.817Z,18.05
2022-09-24T11:32:26.109Z,17.90
2022-09-24T11:34:55.177Z,16.58
2022-09-24T11:37:21.406Z,16.38
2022-09-24T11:39:47.637Z,17.05
2022-09-24T11:42:31.308Z,17.38
2022-09-24T11:45:17.816Z,15.73
2022-09-24T11:47:59.242Z,14.30
2022-09-24T11:50:34.446Z,14.48
2022-09-24T11:53:05.374Z,13.57
2022-09-24T11:55:37.141Z,12.90
2022-09-24T11:58:16.467Z,13.95
2022-09-24T12:01:02.188Z,13.52
2022-09-24T12:05:57.711Z,12.40
2022-09-24T12:08:34.160Z,12.30
2022-09-24T12:11:06.755Z,13.55
2022-09-24T12:13:41.948Z,14.07
2022-09-24T12:16:12.261Z,13.68
2022-09-24T12:18:52.372Z,12.88
2022-09-24T12:21:22.283Z,13.82
2022-09-24T12:23:51.293Z,12.48
2022-09-24T12:26:19.025Z,12.02
2022-09-24T12:29:10.086Z,12.00
2022-09-24T12:32:03.588Z,11.73
2022-09-24T12:34:51.944Z,11.90
2022-09-24T12:37:20.128Z,11.25
2022-09-24T12:39:52.458Z,12.23
2022-09-24T12:42:20.679Z,11.65
2022-09-24T12:44:54.347Z,11.48
2022-09-24T12:47:23.081Z,11.18
2022-09-24T12:49:51.473Z,11.65
2022-09-24T12:52:36.627Z,11.27
2022-09-24T12:55:03.797Z,11.02
2022-09-24T12:57:32.595Z,10.38
2022-09-24T13:00:00.157Z,10.32
2022-09-24T13:02:28.545Z,11.55
2022-09-24T13:04:58.040Z,10.40
2022-09-24T13:07:33.064Z,10.88
2022-09-24T13:10:10.852Z,12.23
2022-09-24T13:12:37.099Z,10.18
2022-09-24T13:15:08.147Z,10.68
2022-09-24T13:17:35.172Z,10.30
2022-09-24T13:20:08.729Z,9.80
2022-09-24T13:22:36.540Z,9.00
2022-09-24T13:25:08.862Z,10.13
2022-09-24T13:27:41.839Z,10.65
2022-09-24T13:30:46.742Z,10.52
2022-09-24T13:33:33.401Z,9.32
2022-09-24T13:36:11.870Z,10.13
2022-09-24T13:38:57.402Z,10.20
2022-09-24T13:41:35.933Z,10.30
2022-09-24T13:44:20.862Z,10.63
2022-09-24T13:46:50.001Z,10.80
2022-09-24T13:49:18.944Z,9.35
2022-09-24T13:51:46.989Z,9.32
2022-09-24T13:54:18.152Z,8.98
2022-09-24T13:56:55.944Z,8.48
2022-09-24T13:59:22.190Z,9.88
2022-09-24T14:01:48.467Z,8.73
2022-09-24T14:04:20.423Z,8.30
2022-09-24T14:06:54.032Z,8.30
2022-09-24T14:09:23.137Z,8.50
2022-09-24T14:11:50.705Z,8.27
2022-09-24T14:14:18.864Z,10.13
2022-09-24T14:16:45.137Z,8.93
2022-09-24T14:19:15.321Z,8.77
2022-09-24T14:21:51.503Z,9.50
2022-09-24T14:24:21.406Z,10.63
2022-09-24T14:26:55.668Z,10.10
2022-09-24T14:29:25.900Z,10.32
2022-09-24T14:31:54.321Z,10.05
2022-09-24T14:34:23.391Z,9.02
2022-09-24T14:36:51.060Z,8.82
2022-09-24T14:39:17.334Z,8.43
2022-09-24T14:41:43.893Z,8.77
2022-09-24T14:44:20.561Z,8.32
2022-09-24T14:47:04.776Z,8.38
2022-09-24T14:49:43.721Z,8.82
2022-09-24T14:52:26.005Z,8.32
2022-09-24T14:55:01.014Z,8.35
2022-09-24T14:57:27.267Z,8.38
2022-09-24T14:59:53.609Z,8.93
2022-09-24T15:02:22.534Z,10.68
2022-09-24T15:04:50.960Z,10.45
2022-09-24T15:07:18.675Z,10.48
2022-09-24T15:09:48.569Z,8.80
2022-09-24T15:12:19.919Z,9.27
2022-09-24T15:14:56.226Z,8.77
2022-09-24T15:17:24.615Z,7.93
2022-09-24T15:19:56.013Z,8.35
2022-09-24T15:22:22.530Z,8.98
2022-09-24T15:24:49.062Z,9.23
2022-09-24T15:27:29.195Z,8.18
2022-09-24T15:29:59.884Z,8.13
2022-09-24T15:32:27.220Z,9.25
2022-09-24T15:34:56.573Z,10.10
2022-09-24T15:37:23.951Z,8.27
2022-09-24T15:39:51.260Z,7.50
2022-09-24T15:42:21.345Z,7.80
2022-09-24T15:44:47.785Z,7.88
2022-09-24T15:47:14.368Z,6.93
2022-09-24T15:49:40.773Z,7.35
2022-09-24T15:52:26.284Z,7.55
2022-09-24T15:54:56.292Z,6.50
2022-09-24T15:57:22.653Z,5.50
2022-09-24T15:59:49.772Z,5.85
2022-09-24T16:02:24.671Z,5.75
2022-09-24T16:04:51.111Z,6.63
2022-09-24T16:07:18.242Z,6.30
2022-09-24T16:09:44.943Z,6.65
2022-09-24T16:12:14.959Z,6.45
2022-09-24T16:14:41.282Z,5.97
2022-09-24T16:17:07.567Z,7.20
2022-09-24T16:19:33.891Z,6.32
2022-09-24T16:22:01.080Z,6.82
2022-09-24T16:24:27.418Z,7.05
2022-09-24T16:26:53.889Z,6.68
2022-09-24T16:29:20.202Z,5.63
2022-09-24T16:31:46.855Z,5.38
2022-09-24T16:34:13.119Z,5.53
2022-09-24T16:36:39.377Z,5.32
2022-09-24T16:39:05.696Z,5.55
2022-09-24T16:41:34.333Z,5.18
2022-09-24T16:44:01.611Z,5.50
2022-09-24T16:46:27.893Z,3.53
2022-09-24T16:48:54.247Z,3.65
2022-09-24T16:51:20.575Z,3.47
2022-09-24T16:53:48.975Z,3.55
2022-09-24T16:56:16.257Z,3.50
2022-09-24T16:58:43.551Z,3.33
2022-09-24T17:01:10.939Z,3.70
2022-09-24T17:03:37.269Z,3.80
2022-09-24T17:06:04.020Z,3.33
2022-09-24T17:08:49.638Z,3.63
2022-09-24T17:11:16.430Z,3.15
2022-09-24T17:13:42.810Z,3.45
2022-09-24T17:16:09.330Z,4.28
2022-09-24T17:18:35.680Z,3.58
2022-09-24T17:21:02.812Z,3.83
2022-09-24T17:23:29.138Z,3.22
2022-09-24T17:26:02.023Z,3.38
2022-09-24T17:28:28.351Z,3.25
2022-09-24T17:30:55.389Z,3.60
2022-09-24T17:33:42.356Z,3.53
2022-09-24T17:36:09.161Z,3.72
2022-09-24T17:38:36.822Z,3.38
2022-09-24T17:41:05.276Z,3.95
2022-09-24T17:43:31.965Z,3.58
2022-09-24T17:46:10.056Z,4.25
2022-09-24T17:48:40.840Z,4.28
2022-09-24T17:51:09.206Z,3.85
2022-09-24T17:53:36.437Z,4.10
2022-09-24T17:56:03.053Z,4.50
2022-09-24T17:58:29.560Z,4.22
2022-09-24T18:01:02.195Z,4.28
2022-09-24T18:03:28.444Z,4.35
2022-09-24T18:05:59.459Z,4.28
2022-09-24T18:08:25.708Z,4.47
2022-09-24T18:11:05.280Z,4.30
2022-09-24T18:13:34.192Z,5.30
2022-09-24T18:16:08.364Z,4.95
2022-09-24T18:18:34.986Z,4.30
2022-09-24T18:21:05.502Z,5.25
2022-09-24T18:23:31.911Z,4.43
2022-09-24T18:26:16.730Z,5.05
2022-09-24T18:28:45.823Z,5.27
2022-09-24T18:31:13.075Z,5.43
2022-09-24T18:33:40.665Z,7.53
2022-09-24T18:36:08.486Z,7.15
2022-09-24T18:38:35.069Z,5.05
2022-09-24T18:41:06.083Z,6.57
2022-09-24T18:43:32.543Z,5.75
2022-09-24T18:46:03.279Z,6.43
2022-09-24T18:48:29.667Z,4.90
2022-09-24T18:50:55.920Z,5.57
2022-09-24T18:53:22.196Z,5.45
2022-09-24T18:55:48.434Z,5.85
2022-09-24T18:58:14.713Z,6.95
2022-09-24T19:00:50.768Z,5.55
2022-09-24T19:03:25.147Z,6.28
2022-09-24T19:05:52.099Z,5.77
2022-09-24T19:08:20.094Z,5.95
2022-09-24T19:10:47.287Z,5.60
2022-09-24T19:13:14.234Z,6.45
2022-09-24T19:15:41.534Z,5.80
2022-09-24T19:18:08.803Z,5.90
2022-09-24T19:20:38.464Z,6.50
2022-09-24T19:23:05.039Z,5.28
2022-09-24T19:25:32.131Z,6.18
2022-09-24T19:27:58.413Z,5.57
2022-09-24T19:30:24.836Z,5.75
2022-09-24T19:32:51.105Z,5.93
2022-09-24T19:35:17.356Z,6.32
2022-09-24T19:37:43.638Z,7.20
2022-09-24T19:40:10.246Z,6.47
2022-09-24T19:42:36.972Z,5.90
2022-09-24T19:45:05.091Z,4.80
2022-09-24T19:47:32.503Z,5.38
2022-09-24T19:49:58.869Z,4.93
2022-09-24T19:52:27.857Z,4.95
2022-09-24T19:54:54.172Z,4.90
2022-09-24T19:57:20.489Z,4.95
2022-09-24T19:59:46.746Z,5.88
2022-09-24T20:02:13.448Z,5.63
2022-09-24T20:04:41.390Z,4.82
2022-09-24T20:07:07.743Z,4.47
2022-09-24T20:09:34.184Z,4.78
2022-09-24T20:12:00.527Z,4.80
2022-09-24T20:14:29.170Z,5.13
2022-09-24T20:16:59.083Z,5.60
2022-09-24T20:19:25.510Z,5.32
2022-09-24T20:21:53.056Z,4.63
2022-09-24T20:24:19.348Z,4.53
2022-09-24T20:27:04.347Z,5.38
2022-09-24T20:29:30.582Z,5.55
2022-09-24T20:31:56.995Z,5.78
2022-09-24T20:34:24.991Z,4.05
2022-09-24T20:36:51.406Z,4.43
2022-09-24T20:39:17.682Z,4.72
2022-09-24T20:41:44.073Z,4.80
2022-09-24T20:44:10.443Z,4.07
2022-09-24T20:46:36.817Z,4.30
2022-09-24T20:49:03.174Z,3.97
2022-09-24T20:51:30.172Z,3.67
2022-09-24T20:53:57.965Z,3.38
2022-09-24T20:56:24.220Z,3.45
2022-09-24T20:58:51.445Z,3.63
2022-09-24T21:01:18.134Z,3.85
2022-09-24T21:03:45.760Z,3.30
2022-09-24T21:06:12.607Z,3.42
2022-09-24T21:08:40.394Z,3.88
2022-09-24T21:11:08.320Z,3.33
2022-09-24T21:13:35.571Z,3.78
2022-09-24T21:16:05.169Z,3.53
2022-09-24T21:18:40.218Z,3.92
2022-09-24T21:23:37.934Z,3.63
2022-09-24T21:26:11.260Z,3.65
2022-09-24T21:28:37.665Z,3.88
2022-09-24T21:31:04.959Z,3.65
2022-09-24T21:33:31.788Z,4.00
2022-09-24T21:36:04.769Z,3.38
2022-09-24T21:38:31.099Z,3.72
2022-09-24T21:40:57.731Z,4.40
2022-09-24T21:43:33.872Z,3.50
2022-09-24T21:46:02.691Z,3.97
2022-09-24T21:48:29.649Z,3.42
2022-09-24T21:51:03.768Z,3.33
2022-09-24T21:53:30.076Z,3.28
2022-09-24T21:55:56.351Z,2.75
2022-09-24T21:58:22.607Z,4.38
2022-09-24T22:00:48.867Z,3.00
2022-09-24T22:03:15.231Z,4.75
2022-09-24T22:05:43.204Z,3.63
2022-09-24T22:08:11.869Z,3.30
2022-09-24T22:10:42.367Z,3.28
2022-09-24T22:13:09.406Z,3.40
2022-09-24T22:15:35.827Z,3.90
2022-09-24T22:18:02.388Z,3.03
2022-09-24T22:20:29.103Z,3.53
2022-09-24T22:22:55.599Z,4.10
2022-09-24T22:25:22.243Z,3.25
2022-09-24T22:27:48.496Z,3.08
2022-09-24T22:30:14.762Z,3.53
2022-09-24T22:32:41.040Z,3.30
2022-09-24T22:35:27.436Z,2.80
2022-09-24T22:37:54.089Z,2.78
2022-09-24T22:40:20.723Z,3.60
2022-09-24T22:42:47.055Z,2.88
2022-09-24T22:45:13.496Z,2.72
2022-09-24T22:47:39.759Z,3.47
2022-09-24T22:50:06.307Z,2.90
2022-09-24T22:52:32.576Z,2.50
2022-09-24T22:54:58.813Z,2.67
2022-09-24T22:57:25.169Z,2.50
2022-09-24T22:59:51.417Z,3.40
2022-09-24T23:02:17.679Z,3.40
2022-09-24T23:04:44.514Z,2.55
2022-09-24T23:07:10.860Z,3.30
2022-09-24T23:09:37.103Z,3.05
2022-09-24T23:12:03.463Z,2.92
2022-09-24T23:14:29.717Z,2.60
2022-09-24T23:16:58.574Z,2.83
2022-09-24T23:19:44.891Z,2.65
2022-09-24T23:22:11.147Z,3.13
2022-09-24T23:24:37.409Z,3.25
2022-09-24T23:27:04.160Z,2.80
2022-09-24T23:29:30.403Z,3.20
2022-09-24T23:31:56.742Z,2.50
2022-09-24T23:34:23.004Z,2.95
2022-09-24T23:36:49.243Z,2.67
2022-09-24T23:39:15.501Z,3.28
2022-09-24T23:41:41.849Z,3.28
2022-09-24T23:44:08.196Z,2.83
2022-09-24T23:46:34.554Z,2.25
2022-09-24T23:49:00.856Z,2.97
2022-09-24T23:51:27.126Z,2.35
2022-09-24T23:53:53.448Z,2.60
2022-09-24T23:56:20.077Z,2.75
2022-09-24T23:58:46.496Z,2.65
